Time;durP1;ratioP1;P1;durP2;ratioP2;P2;SDS_P1;SDS_P2;PMS_P1;PMS_P2;Temp;Humidity;BMP_temperature;BMP_pressure;BME280_temperature;BME280_humidity;BME280_pressure;Samples;Min_cycle;Max_cycle;Signal;HPM_P1;HPM_P2
2021/11/08 00:00:45;;;;;;;12.27;6.03;;;6.90;99.90;;;;;;4993652;28;20411;-68
2021/11/08 00:03:16;;;;;;;10.80;7.50;;;6.80;99.90;;;;;;4993315;28;20401;-68
2021/11/08 00:05:43;;;;;;;11.77;5.63;;;6.90;99.90;;;;;;4993373;28;20453;-68
2021/11/08 00:08:12;;;;;;;8.80;6.03;;;7.00;99.90;;;;;;4993475;28;20415;-68
2021/11/08 00:10:38;;;;;;;18.40;8.93;;;6.90;99.90;;;;;;4993391;28;20411;-68
2021/11/08 00:13:06;;;;;;;11.37;4.97;;;6.90;99.90;;;;;;4993205;28;20445;-68
2021/11/08 00:15:49;;;;;;;9.40;5.70;;;6.90;99.90;;;;;;4993210;28;20465;-68
2021/11/08 00:18:41;;;;;;;11.47;5.80;;;6.90;99.90;;;;;;4993425;28;20397;-69
2021/11/08 00:21:07;;;;;;;8.73;4.40;;;6.90;99.90;;;;;;4993324;28;20408;-69
2021/11/08 00:23:34;;;;;;;16.90;5.80;;;6.90;99.90;;;;;;4992908;28;20408;-69
2021/11/08 00:26:01;;;;;;;9.37;5.73;;;6.90;99.90;;;;;;4992840;28;20415;-68
2021/11/08 00:28:27;;;;;;;15.83;4.73;;;6.90;99.90;;;;;;4993101;28;20417;-68
2021/11/08 00:30:54;;;;;;;9.17;4.57;;;6.90;99.90;;;;;;4993135;28;20410;-68
2021/11/08 00:33:22;;;;;;;11.10;5.07;;;6.80;99.90;;;;;;4992774;28;20436;-68
2021/11/08 00:35:50;;;;;;;14.63;5.90;;;6.90;99.90;;;;;;4992896;28;20542;-68
2021/11/08 00:38:17;;;;;;;8.60;4.33;;;6.90;99.90;;;;;;4993041;28;20410;-69
2021/11/08 00:40:44;;;;;;;6.30;4.50;;;6.90;99.90;;;;;;4992874;28;20405;-69
2021/11/08 00:43:12;;;;;;;15.40;6.23;;;6.80;99.90;;;;;;4992713;28;20520;-68
2021/11/08 00:45:39;;;;;;;12.70;5.17;;;6.90;99.90;;;;;;4992804;28;20459;-69
2021/11/08 00:48:06;;;;;;;8.73;4.10;;;7.00;99.90;;;;;;4992879;28;20447;-68
2021/11/08 00:50:32;;;;;;;14.00;6.50;;;7.00;99.90;;;;;;4992722;28;20416;-69
2021/11/08 00:52:58;;;;;;;9.67;6.10;;;7.00;99.90;;;;;;4992498;28;20412;-68
2021/11/08 00:55:25;;;;;;;13.20;5.73;;;6.90;99.90;;;;;;4992595;28;20466;-68
2021/11/08 00:57:53;;;;;;;11.73;4.50;;;6.90;99.90;;;;;;4992768;28;20404;-68
2021/11/08 01:00:24;;;;;;;14.33;5.47;;;6.90;99.90;;;;;;4992641;28;20828;-68
2021/11/08 01:02:49;;;;;;;5.70;4.67;;;6.80;99.90;;;;;;4992463;28;20498;-68
2021/11/08 01:05:16;;;;;;;9.03;5.30;;;6.90;99.90;;;;;;4992470;28;20508;-68
2021/11/08 01:07:42;;;;;;;14.80;5.57;;;6.90;99.90;;;;;;4992669;28;20176;-69
2021/11/08 01:10:10;;;;;;;13.43;5.37;;;7.00;99.90;;;;;;4992478;28;20412;-68
2021/11/08 01:12:35;;;;;;;13.93;5.17;;;6.80;99.90;;;;;;4992488;28;20656;-68
2021/11/08 01:15:05;;;;;;;15.93;5.40;;;6.90;99.90;;;;;;4992176;28;20544;-69
2021/11/08 01:17:31;;;;;;;15.37;4.43;;;6.90;99.90;;;;;;4992400;28;20190;-68
2021/11/08 01:19:57;;;;;;;17.27;5.60;;;6.80;99.90;;;;;;4992465;28;20484;-68
2021/11/08 01:22:23;;;;;;;10.20;5.80;;;6.70;99.90;;;;;;4992480;28;20819;-69
2021/11/08 01:24:52;;;;;;;14.00;6.30;;;6.70;99.90;;;;;;4992217;28;20422;-69
2021/11/08 01:27:24;;;;;;;10.00;5.07;;;6.70;99.90;;;;;;4992443;28;20756;-68
2021/11/08 01:29:51;;;;;;;10.30;5.00;;;6.70;99.90;;;;;;4992350;28;20412;-68
2021/11/08 01:32:16;;;;;;;11.93;5.70;;;6.70;99.90;;;;;;4992394;28;20975;-68
2021/11/08 01:34:43;;;;;;;9.17;5.33;;;6.70;99.90;;;;;;4992085;28;20428;-68
2021/11/08 01:37:10;;;;;;;13.00;5.80;;;6.70;99.90;;;;;;4992299;28;20192;-69
2021/11/08 01:39:37;;;;;;;10.90;5.63;;;6.70;99.90;;;;;;4996225;28;20513;-69
2021/11/08 01:42:08;;;;;;;10.40;4.57;;;6.70;99.90;;;;;;4994985;28;20423;-69
2021/11/08 01:44:34;;;;;;;8.40;5.43;;;6.80;99.90;;;;;;4995834;28;20479;-68
2021/11/08 01:47:03;;;;;;;12.07;4.60;;;6.80;99.90;;;;;;4996154;28;20413;-69
2021/11/08 01:49:29;;;;;;;15.07;6.80;;;6.80;99.90;;;;;;4996099;28;20766;-68
2021/11/08 01:51:57;;;;;;;11.10;5.50;;;6.80;99.90;;;;;;4996159;28;20462;-68
2021/11/08 01:54:24;;;;;;;18.37;8.13;;;6.80;99.90;;;;;;4995640;28;20852;-68
2021/11/08 01:56:52;;;;;;;16.00;5.87;;;6.80;99.90;;;;;;4996055;28;20794;-68
2021/11/08 01:59:19;;;;;;;12.13;6.00;;;6.70;99.90;;;;;;4995867;28;20757;-68
2021/11/08 02:01:45;;;;;;;12.00;5.70;;;6.70;99.90;;;;;;4996180;28;20817;-68
2021/11/08 02:04:11;;;;;;;14.90;5.77;;;6.70;99.90;;;;;;4995473;28;20444;-68
2021/11/08 02:06:37;;;;;;;14.87;5.70;;;6.70;99.90;;;;;;4995859;28;20408;-69
2021/11/08 02:09:04;;;;;;;11.63;6.07;;;6.70;99.90;;;;;;4995623;28;20415;-69
2021/11/08 02:11:35;;;;;;;8.13;6.03;;;6.70;99.90;;;;;;4995633;28;20417;-68
2021/11/08 02:14:02;;;;;;;8.77;5.53;;;6.70;99.90;;;;;;4995176;28;20455;-68
2021/11/08 02:16:28;;;;;;;7.10;5.50;;;6.70;99.90;;;;;;4995559;28;20971;-68
2021/11/08 02:18:55;;;;;;;14.03;6.33;;;6.70;99.90;;;;;;4995533;28;20476;-68
2021/11/08 02:21:21;;;;;;;12.60;6.80;;;6.80;99.90;;;;;;4995560;28;20405;-68
2021/11/08 02:23:48;;;;;;;10.50;6.93;;;6.80;99.90;;;;;;4995141;28;20428;-68
2021/11/08 02:26:16;;;;;;;12.57;6.87;;;6.80;99.90;;;;;;4995466;28;20958;-68
2021/11/08 02:28:48;;;;;;;12.20;6.93;;;6.70;99.90;;;;;;4995340;28;20408;-67
2021/11/08 02:31:17;;;;;;;10.70;7.27;;;6.70;99.90;;;;;;4995441;28;20503;-68
2021/11/08 02:33:47;;;;;;;16.70;6.70;;;6.70;99.90;;;;;;4995020;28;20543;-67
2021/11/08 02:36:14;;;;;;;13.00;6.20;;;6.60;99.90;;;;;;4995137;28;20531;-68
2021/11/08 02:38:45;;;;;;;16.10;7.13;;;6.60;99.90;;;;;;4995145;28;20507;-68
2021/11/08 02:41:10;;;;;;;13.30;7.97;;;6.60;99.90;;;;;;4995246;28;20466;-68
2021/11/08 02:43:39;;;;;;;11.70;6.27;;;6.60;99.90;;;;;;4994742;28;20396;-68
2021/11/08 02:46:12;;;;;;;19.83;6.53;;;6.70;99.90;;;;;;4995140;28;20570;-68
2021/11/08 02:48:41;;;;;;;12.93;6.60;;;6.70;99.90;;;;;;4995068;28;20416;-68
2021/11/08 02:51:17;;;;;;;14.43;7.70;;;6.70;99.90;;;;;;4994353;28;20849;-68
2021/11/08 02:53:44;;;;;;;16.90;6.53;;;6.60;99.90;;;;;;4995213;28;20443;-68
2021/11/08 02:56:11;;;;;;;9.83;5.37;;;6.70;99.90;;;;;;4994844;28;20824;-68
2021/11/08 02:58:41;;;;;;;21.53;6.90;;;6.70;99.90;;;;;;4994876;28;20406;-68
2021/11/08 03:01:07;;;;;;;19.33;6.90;;;6.70;99.90;;;;;;4994912;28;20450;-68
2021/11/08 03:03:38;;;;;;;14.23;7.23;;;6.60;99.90;;;;;;4994415;28;20492;-68
2021/11/08 03:09:14;;;;;;;17.83;7.47;;;6.60;99.90;;;;;;4998302;28;20805;-68
2021/11/08 03:11:40;;;;;;;11.57;6.33;;;6.70;99.90;;;;;;4994587;28;20401;-68
2021/11/08 03:14:07;;;;;;;15.03;5.97;;;6.60;99.90;;;;;;4994140;28;21003;-68
2021/11/08 03:16:57;;;;;;;20.00;7.23;;;6.60;99.90;;;;;;4994709;28;20456;-68
2021/11/08 03:19:25;;;;;;;15.80;6.90;;;6.60;99.90;;;;;;4994213;28;20503;-68
2021/11/08 03:21:55;;;;;;;16.17;7.50;;;6.70;99.90;;;;;;4994516;28;20439;-68
2021/11/08 03:24:38;;;;;;;8.57;6.70;;;6.60;99.90;;;;;;4994218;28;20420;-68
2021/11/08 03:27:22;;;;;;;13.03;8.00;;;6.60;99.90;;;;;;4994481;28;20889;-68
2021/11/08 03:29:48;;;;;;;18.33;9.07;;;6.60;99.90;;;;;;4993037;28;20411;-68
2021/11/08 03:32:16;;;;;;;17.23;6.70;;;6.60;99.90;;;;;;4994297;28;20405;-69
2021/11/08 03:34:49;;;;;;;10.23;6.60;;;6.50;99.90;;;;;;4993747;28;20424;-68
2021/11/08 03:37:15;;;;;;;13.83;6.17;;;6.60;99.90;;;;;;4994238;28;20414;-68
2021/11/08 03:39:41;;;;;;;13.90;7.50;;;6.60;99.90;;;;;;4994151;28;20778;-68
2021/11/08 03:42:07;;;;;;;15.97;6.10;;;6.70;99.90;;;;;;4994164;28;20412;-68
2021/11/08 03:44:33;;;;;;;9.80;6.00;;;6.70;99.90;;;;;;4992657;28;20558;-68
2021/11/08 03:46:59;;;;;;;10.73;6.20;;;6.60;99.90;;;;;;4994038;28;20407;-68
2021/11/08 03:49:25;;;;;;;18.70;6.80;;;6.70;99.90;;;;;;4993861;28;20401;-68
2021/11/08 03:51:51;;;;;;;8.83;5.67;;;6.70;99.90;;;;;;4993810;28;20843;-68
2021/11/08 03:54:18;;;;;;;15.97;6.27;;;6.70;99.90;;;;;;4993536;28;20195;-68
2021/11/08 03:56:43;;;;;;;9.03;6.10;;;6.70;99.90;;;;;;4993742;28;20482;-69
2021/11/08 03:59:09;;;;;;;10.00;6.47;;;6.70;99.90;;;;;;4993685;28;20412;-68
2021/11/08 04:01:37;;;;;;;12.93;6.33;;;6.60;99.90;;;;;;4992819;28;20264;-68
2021/11/08 04:04:05;;;;;;;13.07;8.77;;;6.70;99.90;;;;;;4993206;28;20204;-69
2021/11/08 04:06:31;;;;;;;13.43;6.27;;;6.70;99.90;;;;;;4993746;28;20959;-68
2021/11/08 04:08:59;;;;;;;18.57;6.77;;;6.70;99.90;;;;;;4993566;28;20475;-68
2021/11/08 04:11:27;;;;;;;12.53;7.70;;;6.70;99.90;;;;;;4993667;28;20878;-68
2021/11/08 04:13:53;;;;;;;10.30;5.73;;;6.60;99.90;;;;;;4993056;28;20435;-68
2021/11/08 04:16:19;;;;;;;12.20;6.43;;;6.70;99.90;;;;;;4993507;28;21088;-68
2021/11/08 04:18:52;;;;;;;13.73;7.83;;;6.60;99.90;;;;;;4993458;28;20784;-69
2021/11/08 04:21:19;;;;;;;16.17;8.60;;;6.70;99.90;;;;;;4993486;28;20466;-68
2021/11/08 04:23:45;;;;;;;13.43;6.80;;;6.70;99.90;;;;;;4992966;28;20433;-68
2021/11/08 04:26:15;;;;;;;13.77;7.00;;;6.70;99.90;;;;;;4993350;28;20450;-68
2021/11/08 04:28:40;;;;;;;18.60;7.20;;;6.70;99.90;;;;;;4993239;28;20201;-69
2021/11/08 04:31:08;;;;;;;9.80;6.47;;;6.80;99.90;;;;;;4993146;28;20888;-68
2021/11/08 04:33:37;;;;;;;10.20;6.37;;;6.80;99.90;;;;;;4992977;28;20198;-68
2021/11/08 04:36:15;;;;;;;17.40;7.43;;;6.80;99.90;;;;;;4993161;28;20938;-68
2021/11/08 04:41:26;;;;;;;15.10;7.33;;;6.80;99.90;;;;;;4993204;28;20422;-68
2021/11/08 04:44:02;;;;;;;14.70;8.10;;;6.60;99.90;;;;;;4992674;28;20221;-68
2021/11/08 04:47:37;;;;;;;28.07;8.00;;;6.70;99.90;;;;;;4992969;28;20966;-69
2021/11/08 05:24:17;;;;;;;14.77;7.63;;;6.60;99.90;;;;;;4992264;28;20420;-68
2021/11/08 05:32:12;;;;;;;17.00;5.97;;;6.70;99.90;;;;;;4992718;28;20431;-68
2021/11/08 05:34:37;;;;;;;14.00;6.03;;;6.70;99.90;;;;;;4991996;28;20814;-68
2021/11/08 05:37:08;;;;;;;11.57;6.70;;;6.70;99.90;;;;;;4992455;28;20200;-68
2021/11/08 05:39:35;;;;;;;14.87;6.93;;;6.60;99.90;;;;;;4992348;28;20196;-68
2021/11/08 05:42:02;;;;;;;11.97;6.20;;;6.60;99.90;;;;;;4992323;28;20931;-68
2021/11/08 05:44:28;;;;;;;7.80;6.63;;;6.60;99.90;;;;;;4992119;28;20437;-69
2021/11/08 05:46:54;;;;;;;12.03;5.63;;;6.60;99.90;;;;;;4992340;28;20413;-68
2021/11/08 05:49:19;;;;;;;19.13;7.03;;;6.50;99.90;;;;;;4992303;28;20979;-68
2021/11/08 05:51:45;;;;;;;16.70;7.80;;;6.60;99.90;;;;;;4992335;28;20185;-68
2021/11/08 05:54:10;;;;;;;10.80;6.30;;;6.60;99.90;;;;;;4991933;28;20200;-68
2021/11/08 05:56:56;;;;;;;17.83;8.87;;;6.60;99.90;;;;;;4992038;28;20618;-68
2021/11/08 06:51:22;;;;;;;16.40;8.73;;;6.60;99.90;;;;;;4995274;28;20417;-68
2021/11/08 06:53:50;;;;;;;10.93;6.97;;;6.60;99.90;;;;;;4994586;28;21026;-68
2021/11/08 06:56:25;;;;;;;13.10;7.07;;;6.50;99.90;;;;;;4994981;28;20821;-68
2021/11/08 06:58:50;;;;;;;19.40;7.97;;;6.50;99.90;;;;;;4994888;28;20868;-68
2021/11/08 07:01:16;;;;;;;11.00;6.83;;;6.60;99.90;;;;;;4994742;28;20487;-68
2021/11/08 07:03:42;;;;;;;14.63;7.47;;;6.50;99.90;;;;;;4994383;28;20177;-68
2021/11/08 07:06:07;;;;;;;13.00;7.17;;;6.60;99.90;;;;;;4994816;28;20213;-68
2021/11/08 07:08:33;;;;;;;18.10;8.40;;;6.60;99.90;;;;;;4994712;28;20198;-68
2021/11/08 07:10:59;;;;;;;11.67;8.37;;;6.50;99.90;;;;;;4994592;28;20649;-68
2021/11/08 07:13:24;;;;;;;12.70;6.57;;;6.50;99.90;;;;;;4994314;28;20659;-68
2021/11/08 07:15:50;;;;;;;10.23;7.37;;;6.60;99.90;;;;;;4994304;28;20200;-70
2021/11/08 07:18:16;;;;;;;10.30;6.67;;;6.50;99.90;;;;;;4994607;28;20765;-69
2021/11/08 07:20:43;;;;;;;14.40;6.57;;;6.50;99.90;;;;;;4994454;28;20409;-68
2021/11/08 07:23:08;;;;;;;11.87;6.77;;;6.50;99.90;;;;;;4994261;28;20412;-69
2021/11/08 07:25:34;;;;;;;16.40;7.00;;;6.50;99.90;;;;;;4994395;28;20428;-69
2021/11/08 07:28:03;;;;;;;10.80;6.83;;;6.50;99.90;;;;;;4994380;28;20537;-68
2021/11/08 07:30:30;;;;;;;9.63;6.63;;;6.50;99.90;;;;;;4994122;28;20170;-69
2021/11/08 07:32:56;;;;;;;13.70;7.17;;;6.50;99.90;;;;;;4994147;28;20408;-69
2021/11/08 07:35:21;;;;;;;15.30;6.03;;;6.50;99.90;;;;;;4993833;28;20449;-69
2021/11/08 07:37:47;;;;;;;9.40;7.63;;;6.60;99.90;;;;;;4994218;28;20257;-68
2021/11/08 07:40:13;;;;;;;11.40;7.10;;;6.50;99.90;;;;;;4994166;28;20220;-68
2021/11/08 07:42:38;;;;;;;7.77;6.80;;;6.60;99.90;;;;;;4994043;28;20165;-70
2021/11/08 07:45:04;;;;;;;13.10;7.67;;;6.60;99.90;;;;;;4993600;28;20268;-69
2021/11/08 07:47:30;;;;;;;14.40;6.93;;;6.60;99.90;;;;;;4994116;28;20174;-70
2021/11/08 07:49:56;;;;;;;15.07;8.20;;;6.60;99.90;;;;;;4993497;28;20412;-67
2021/11/08 07:52:21;;;;;;;16.83;7.57;;;6.60;99.90;;;;;;4994062;28;20177;-69
2021/11/08 07:54:47;;;;;;;19.07;7.20;;;6.60;99.90;;;;;;4993619;28;20190;-68
2021/11/08 07:57:12;;;;;;;15.10;7.50;;;6.80;99.90;;;;;;4993953;28;20661;-68
2021/11/08 07:59:38;;;;;;;10.77;6.80;;;6.80;99.90;;;;;;4993429;28;20189;-68
2021/11/08 08:02:04;;;;;;;15.20;7.10;;;6.80;99.90;;;;;;4993903;28;20181;-68
2021/11/08 08:04:30;;;;;;;17.47;6.80;;;6.80;99.90;;;;;;4993243;28;20540;-69
2021/11/08 08:06:55;;;;;;;21.10;7.33;;;6.80;99.90;;;;;;4993611;28;20304;-68
2021/11/08 08:09:21;;;;;;;13.10;6.80;;;6.80;99.90;;;;;;4993563;28;20199;-68
2021/11/08 08:11:47;;;;;;;11.77;6.10;;;6.90;99.90;;;;;;4993525;28;20185;-69
2021/11/08 08:14:14;;;;;;;11.87;6.47;;;6.90;99.90;;;;;;4992902;28;20190;-68
2021/11/08 08:16:39;;;;;;;14.00;7.70;;;6.90;99.90;;;;;;4993359;28;20463;-71
2021/11/08 08:19:05;;;;;;;11.77;6.20;;;7.00;99.90;;;;;;4993411;28;20845;-69
2021/11/08 08:21:31;;;;;;;12.57;7.30;;;7.20;99.90;;;;;;4993432;28;20177;-68
2021/11/08 08:23:59;;;;;;;11.87;6.17;;;7.40;99.90;;;;;;4993334;28;20983;-69
2021/11/08 08:26:30;;;;;;;14.87;5.60;;;7.70;99.90;;;;;;4993389;28;20453;-72
2021/11/08 08:28:56;;;;;;;10.93;6.80;;;7.90;99.90;;;;;;4993199;28;20404;-69
2021/11/08 08:31:22;;;;;;;21.37;7.90;;;8.10;99.90;;;;;;4993269;28;20444;-70
2021/11/08 08:33:48;;;;;;;10.43;5.13;;;8.30;99.90;;;;;;4992954;28;21176;-72
2021/11/08 08:36:13;;;;;;;7.77;5.30;;;8.60;99.90;;;;;;4993143;28;20453;-74
2021/11/08 08:38:40;;;;;;;15.00;6.53;;;8.70;99.90;;;;;;4993208;28;20413;-71
2021/11/08 08:41:06;;;;;;;17.63;6.00;;;8.90;99.90;;;;;;4993202;28;20202;-72
2021/11/08 08:43:32;;;;;;;15.03;6.40;;;9.20;99.90;;;;;;4992761;28;20897;-73
2021/11/08 08:45:58;;;;;;;11.23;5.70;;;9.50;99.90;;;;;;4993115;28;20746;-69
2021/11/08 08:48:26;;;;;;;14.40;5.70;;;9.80;99.90;;;;;;4992387;28;20170;-68
2021/11/08 08:50:52;;;;;;;12.00;5.67;;;10.00;99.90;;;;;;4992898;28;20559;-70
2021/11/08 08:53:19;;;;;;;10.37;6.27;;;10.50;99.90;;;;;;4993236;28;20436;-69
2021/11/08 08:55:45;;;;;;;8.97;6.07;;;10.70;99.90;;;;;;4992528;28;20484;-70
2021/11/08 08:58:12;;;;;;;20.37;6.50;;;10.90;99.90;;;;;;4992775;28;20421;-72
2021/11/08 09:00:39;;;;;;;17.10;5.60;;;10.90;98.30;;;;;;4992743;28;20788;-72
2021/11/08 09:03:05;;;;;;;13.57;5.53;;;11.20;99.70;;;;;;4992300;28;20515;-69
2021/11/08 09:05:31;;;;;;;17.10;5.40;;;11.90;99.90;;;;;;4992790;28;20488;-70
2021/11/08 09:07:57;;;;;;;7.47;4.27;;;11.90;98.60;;;;;;4992711;28;20406;-68
2021/11/08 09:10:25;;;;;;;18.07;6.10;;;12.60;99.20;;;;;;4992523;28;20427;-70
2021/11/08 09:12:53;;;;;;;10.77;5.63;;;13.10;97.00;;;;;;4992452;28;20178;-71
2021/11/08 09:15:20;;;;;;;13.07;4.33;;;13.40;95.60;;;;;;4992578;28;20452;-70
2021/11/08 09:17:45;;;;;;;11.93;4.67;;;13.80;97.00;;;;;;4992647;28;20401;-70
2021/11/08 09:20:12;;;;;;;13.80;4.80;;;14.30;95.90;;;;;;4992560;28;20423;-70
2021/11/08 09:22:42;;;;;;;8.83;4.20;;;14.70;94.60;;;;;;4992536;28;20174;-70
2021/11/08 09:25:08;;;;;;;13.07;5.13;;;14.90;93.80;;;;;;4992630;28;20511;-70
2021/11/08 09:27:34;;;;;;;14.13;4.93;;;15.00;92.50;;;;;;4992578;28;20452;-71
2021/11/08 09:30:00;;;;;;;13.80;4.53;;;15.00;92.20;;;;;;4992552;28;20437;-71
2021/11/08 09:32:25;;;;;;;10.93;3.70;;;15.20;91.80;;;;;;4992510;28;20686;-71
2021/11/08 09:34:52;;;;;;;12.60;4.40;;;15.60;92.10;;;;;;4992170;28;20196;-72
2021/11/08 09:37:18;;;;;;;10.63;4.53;;;15.60;92.30;;;;;;4992580;28;20789;-72
2021/11/08 09:39:46;;;;;;;11.83;4.17;;;16.10;91.70;;;;;;4992335;28;20423;-70
2021/11/08 09:42:15;;;;;;;7.07;4.23;;;16.40;91.40;;;;;;4992434;28;20452;-69
2021/11/08 09:44:41;;;;;;;10.00;4.13;;;16.70;90.80;;;;;;4992133;28;20460;-69
2021/11/08 09:47:06;;;;;;;10.97;4.00;;;17.10;88.70;;;;;;4992624;28;20791;-70
2021/11/08 09:49:33;;;;;;;13.00;4.00;;;17.50;90.10;;;;;;4992369;28;20496;-70
2021/11/08 09:51:59;;;;;;;11.60;3.90;;;17.80;89.50;;;;;;4992329;28;20595;-70
2021/11/08 09:54:28;;;;;;;14.10;5.00;;;18.10;89.80;;;;;;4992057;28;21016;-72
2021/11/08 09:56:56;;;;;;;15.53;5.20;;;18.40;87.60;;;;;;4992285;28;20452;-71
2021/11/08 09:59:21;;;;;;;13.77;5.50;;;18.60;84.50;;;;;;4992701;28;20408;-72
2021/11/08 10:01:51;;;;;;;12.50;4.47;;;18.80;86.10;;;;;;4996183;28;20413;-70
2021/11/08 10:04:18;;;;;;;6.33;4.00;;;18.80;80.40;;;;;;4995659;28;20202;-71
2021/11/08 10:06:46;;;;;;;8.50;4.10;;;18.40;80.20;;;;;;4995946;28;20924;-71
2021/11/08 10:09:13;;;;;;;14.50;4.67;;;18.50;80.60;;;;;;4995926;28;20798;-72
2021/11/08 10:11:41;;;;;;;11.73;4.00;;;18.00;81.30;;;;;;4995900;28;20416;-70
2021/11/08 10:14:08;;;;;;;7.77;3.97;;;18.30;79.60;;;;;;4995537;28;20964;-71
2021/11/08 10:16:36;;;;;;;11.63;5.10;;;18.20;80.10;;;;;;4995835;28;20506;-71
2021/11/08 10:19:05;;;;;;;9.00;3.50;;;18.30;82.40;;;;;;4995710;28;20405;-70
2021/11/08 10:21:43;;;;;;;6.73;3.50;;;18.60;78.90;;;;;;4995725;28;20416;-71
2021/11/08 10:24:15;;;;;;;11.03;4.00;;;18.80;79.60;;;;;;4995389;28;20433;-72
2021/11/08 10:26:41;;;;;;;12.30;4.07;;;18.60;78.80;;;;;;4995684;28;20408;-72
2021/11/08 10:29:17;;;;;;;11.83;4.20;;;18.20;77.50;;;;;;4995561;28;20409;-72
2021/11/08 10:31:51;;;;;;;12.73;4.70;;;18.60;80.00;;;;;;4995515;28;20177;-71
2021/11/08 10:34:18;;;;;;;10.93;3.80;;;19.10;78.20;;;;;;4995186;28;20432;-71
2021/11/08 10:36:45;;;;;;;7.90;3.40;;;19.40;73.00;;;;;;4995424;28;20541;-72
2021/11/08 10:39:12;;;;;;;5.20;3.60;;;19.70;75.30;;;;;;4995468;28;20472;-71
2021/11/08 10:41:41;;;;;;;6.30;2.73;;;19.80;74.90;;;;;;4995511;28;20826;-71
2021/11/08 10:44:17;;;;;;;9.17;3.70;;;20.00;73.10;;;;;;4993602;28;20442;-71
2021/11/08 10:46:46;;;;;;;8.50;3.60;;;20.40;74.70;;;;;;4995358;28;20457;-72
2021/11/08 10:49:17;;;;;;;9.17;3.17;;;20.70;70.30;;;;;;4995201;28;20421;-71
2021/11/08 10:52:04;;;;;;;15.37;3.60;;;20.80;72.20;;;;;;4993931;28;20420;-72
2021/11/08 10:57:12;;;;;;;7.90;3.40;;;21.40;68.40;;;;;;4975894;23;20489;-70
2021/11/08 10:59:44;;;;;;;7.87;3.03;;;21.20;67.60;;;;;;4975538;28;20421;-71
2021/11/08 11:02:13;;;;;;;9.77;4.27;;;21.40;69.10;;;;;;4975646;28;20402;-69
2021/11/08 11:11:24;;;;;;;11.80;6.77;;;23.50;71.60;;;;;;4990577;28;20425;-74
2021/11/08 11:24:03;;;;;;;5.83;3.43;;;23.30;65.30;;;;;;4994170;28;20413;-72
2021/11/08 11:27:17;;;;;;;5.87;3.20;;;23.70;62.40;;;;;;4994259;28;20408;-74
2021/11/08 11:30:20;;;;;;;6.30;3.00;;;24.60;66.20;;;;;;4994563;28;20409;-73
2021/11/08 11:37:10;;;;;;;11.00;3.60;;;24.20;62.70;;;;;;4953160;29;20517;-75
2021/11/08 11:43:34;;;;;;;11.00;7.30;;;20.80;65.70;;;;;;4993124;28;20432;-74
2021/11/08 11:46:36;;;;;;;12.50;5.17;;;20.00;66.40;;;;;;4994164;28;20424;-73
2021/11/08 11:49:03;;;;;;;9.87;4.60;;;22.00;73.50;;;;;;4993558;28;20808;-75
2021/11/08 11:51:38;;;;;;;7.80;3.97;;;18.60;68.40;;;;;;4993383;28;20440;-74
2021/11/08 11:54:07;;;;;;;11.97;5.13;;;18.20;69.80;;;;;;4993806;28;20463;-75
2021/11/08 11:56:35;;;;;;;9.67;4.50;;;18.00;70.60;;;;;;4994061;28;20543;-75
2021/11/08 11:59:01;;;;;;;6.50;4.37;;;17.80;72.90;;;;;;4993908;28;20451;-75
2021/11/08 12:01:30;;;;;;;9.90;4.10;;;17.40;69.60;;;;;;4994241;28;20428;-75
2021/11/08 12:07:16;;;;;;;5.40;3.37;;;16.70;69.20;;;;;;4891053;26;20484;-75
2021/11/08 12:10:05;;;;;;;7.60;3.33;;;18.60;73.80;;;;;;4995071;28;20428;-75
2021/11/08 12:12:30;;;;;;;9.90;4.00;;;18.30;76.80;;;;;;4995555;28;20777;-75
2021/11/08 12:15:08;;;;;;;12.30;4.90;;;16.10;73.70;;;;;;4994724;28;20433;-75
2021/11/08 12:17:55;;;;;;;7.77;4.10;;;15.90;73.30;;;;;;4994751;28;20170;-75
2021/11/08 12:20:25;;;;;;;22.20;6.03;;;15.90;76.90;;;;;;4993949;28;20427;-74
2021/11/08 12:22:52;;;;;;;9.37;5.07;;;15.70;77.10;;;;;;4992842;28;20528;-74
2021/11/08 12:26:06;;;;;;;;;;;;;;;;;;;;;
2021/11/08 12:29:02;;;;;;;7.43;4.30;;;17.50;80.60;;;;;;4992491;28;20421;-74
2021/11/08 12:31:48;;;;;;;6.93;4.53;;;14.60;80.30;;;;;;4993253;28;20471;-74
2021/11/08 12:38:26;;;;;;;;;;;;;;;;;;;;;
2021/11/08 12:41:27;;;;;;;8.50;3.60;;;17.20;83.20;;;;;;4988594;28;20413;-74
2021/11/08 12:44:26;;;;;;;8.70;4.10;;;15.60;79.70;;;;;;4992409;28;20468;-74
2021/11/08 12:47:03;;;;;;;11.00;4.23;;;15.80;82.30;;;;;;4951120;29;20407;-74
2021/11/08 12:49:38;;;;;;;8.53;5.23;;;15.40;76.40;;;;;;4993027;28;20404;-71
2021/11/08 12:52:09;;;;;;;10.93;6.07;;;16.00;79.20;;;;;;4993118;28;20393;-70
2021/11/08 12:54:54;;;;;;;6.40;3.43;;;16.60;75.40;;;;;;4992707;28;20436;-71
2021/11/08 12:57:22;;;;;;;13.60;4.27;;;17.20;73.60;;;;;;4993101;28;20417;-75
2021/11/08 12:59:53;;;;;;;8.50;3.50;;;17.10;74.80;;;;;;4992739;28;20405;-70
2021/11/08 13:02:27;;;;;;;9.97;4.60;;;16.80;72.30;;;;;;4992989;28;20749;-76
2021/11/08 13:04:56;;;;;;;6.17;3.50;;;16.40;76.80;;;;;;4991232;28;20433;-72
2021/11/08 13:07:26;;;;;;;7.73;3.20;;;16.00;75.10;;;;;;4992847;28;20811;-71
2021/11/08 13:09:56;;;;;;;8.23;4.43;;;16.10;75.90;;;;;;4992642;28;20389;-71
2021/11/08 13:12:39;;;;;;;13.07;4.20;;;16.30;73.50;;;;;;4992708;28;20404;-72
2021/11/08 13:15:27;;;;;;;10.13;4.17;;;17.00;71.70;;;;;;4991181;28;20468;-72
2021/11/08 13:17:54;;;;;;;9.97;3.90;;;17.50;74.80;;;;;;4992754;28;20467;-72
2021/11/08 13:20:23;;;;;;;7.93;4.30;;;17.20;72.50;;;;;;4992545;28;20410;-71
2021/11/08 13:22:55;;;;;;;11.47;4.67;;;16.90;72.40;;;;;;4992414;28;20502;-70
2021/11/08 13:25:24;;;;;;;8.00;3.43;;;16.70;74.20;;;;;;4992607;28;20429;-70
2021/11/08 13:28:02;;;;;;;10.93;4.47;;;16.30;73.00;;;;;;4991805;28;20778;-70
2021/11/08 13:30:34;;;;;;;7.97;3.43;;;16.20;75.60;;;;;;4992486;28;20470;-69
2021/11/08 13:33:00;;;;;;;10.30;3.73;;;15.80;74.90;;;;;;4992050;28;20452;-70
2021/11/08 13:35:27;;;;;;;10.37;3.90;;;15.50;75.00;;;;;;4996352;28;20831;-69
2021/11/08 13:38:05;;;;;;;8.30;4.53;;;15.60;77.10;;;;;;4996524;28;20665;-70
2021/11/08 13:40:33;;;;;;;13.63;4.30;;;15.10;75.00;;;;;;4996426;28;20436;-70
2021/11/08 13:43:11;;;;;;;9.37;3.17;;;15.10;75.30;;;;;;4996188;28;20401;-70
2021/11/08 13:45:54;;;;;;;9.10;4.17;;;15.00;77.10;;;;;;5035916;23;20495;-70
2021/11/08 13:48:31;;;;;;;11.03;3.70;;;15.10;77.00;;;;;;5015800;28;20399;-70
2021/11/08 13:51:00;;;;;;;8.30;4.27;;;14.90;77.40;;;;;;5015705;28;20392;-69
2021/11/08 13:53:32;;;;;;;6.87;3.10;;;15.30;78.80;;;;;;5015467;28;20429;-70
2021/11/08 13:56:07;;;;;;;11.77;4.00;;;16.00;79.10;;;;;;4995994;28;20461;-70
2021/11/08 13:58:34;;;;;;;8.13;3.63;;;16.40;75.60;;;;;;4996139;28;20413;-70
2021/11/08 14:01:06;;;;;;;13.80;5.30;;;16.80;75.00;;;;;;4995994;28;20408;-69
2021/11/08 14:03:42;;;;;;;8.00;4.07;;;17.00;74.10;;;;;;4995586;28;20437;-73
2021/11/08 14:06:09;;;;;;;12.53;4.73;;;17.00;75.00;;;;;;4995870;28;20416;-72
2021/11/08 14:08:46;;;;;;;21.00;5.30;;;17.00;75.10;;;;;;4995920;28;20415;-70
2021/11/08 14:11:12;;;;;;;11.17;4.50;;;16.90;74.30;;;;;;4995987;28;20499;-70
2021/11/08 14:13:42;;;;;;;8.53;3.93;;;16.70;74.80;;;;;;4995514;28;20500;-70
2021/11/08 14:16:10;;;;;;;12.13;5.57;;;16.40;75.50;;;;;;4995826;28;20197;-70
2021/11/08 14:18:36;;;;;;;7.47;3.77;;;16.20;75.80;;;;;;4995715;28;20929;-69
2021/11/08 14:21:11;;;;;;;6.37;3.80;;;16.10;76.20;;;;;;4995647;28;20421;-70
2021/11/08 14:23:42;;;;;;;14.53;4.50;;;16.10;76.90;;;;;;4995327;28;20173;-73
2021/11/08 14:26:10;;;;;;;6.57;3.87;;;15.80;76.30;;;;;;4995487;28;20401;-71
2021/11/08 14:28:36;;;;;;;11.00;3.83;;;15.60;76.20;;;;;;4994221;28;20963;-73
2021/11/08 14:31:03;;;;;;;5.10;2.87;;;15.50;77.00;;;;;;4995507;28;20405;-71
2021/11/08 14:33:29;;;;;;;10.33;3.90;;;15.40;76.30;;;;;;4995735;28;20546;-71
2021/11/08 14:35:55;;;;;;;7.50;2.97;;;15.20;78.00;;;;;;4995336;28;20456;-71
2021/11/08 14:38:50;;;;;;;10.57;5.30;;;15.10;79.80;;;;;;4995414;28;20415;-71
2021/11/08 14:41:17;;;;;;;9.80;2.87;;;15.00;79.90;;;;;;4995356;28;20174;-71
2021/11/08 14:43:43;;;;;;;8.53;4.27;;;15.50;77.60;;;;;;4994644;28;20412;-70
2021/11/08 14:46:09;;;;;;;8.47;4.60;;;14.80;77.60;;;;;;4994295;28;20417;-70
2021/11/08 14:48:39;;;;;;;6.03;3.40;;;14.60;78.60;;;;;;4995178;28;20441;-72
2021/11/08 14:51:12;;;;;;;10.17;3.80;;;14.50;77.50;;;;;;4995161;28;20448;-70
2021/11/08 14:53:49;;;;;;;11.80;4.50;;;14.30;79.40;;;;;;4995116;28;20448;-71
2021/11/08 14:56:24;;;;;;;15.30;4.67;;;14.30;78.70;;;;;;4994854;28;20825;-72
2021/11/08 14:59:11;;;;;;;11.10;6.40;;;14.10;78.70;;;;;;4995326;28;20829;-72
2021/11/08 15:01:59;;;;;;;17.37;4.50;;;14.00;78.30;;;;;;4995133;28;20978;-72
2021/11/08 15:04:25;;;;;;;12.03;5.37;;;13.70;80.10;;;;;;4994612;28;20439;-75
2021/11/08 15:06:57;;;;;;;13.93;6.30;;;13.50;82.10;;;;;;4994991;28;21050;-71
2021/11/08 15:09:24;;;;;;;14.23;4.33;;;13.50;81.30;;;;;;4994911;28;20201;-71
2021/11/08 15:11:50;;;;;;;8.63;4.20;;;13.50;81.80;;;;;;4994880;28;20416;-71
2021/11/08 15:16:56;;;;;;;10.20;4.87;;;13.30;82.60;;;;;;4973564;28;20489;-71